createdAt,value
2023-03-30T00:01:12.143Z,100428.98
2023-03-30T00:03:44.192Z,100429.96
2023-03-30T00:06:14.731Z,100431.23
2023-03-30T00:08:42.991Z,100429.19
2023-03-30T00:11:17.179Z,100430.61
2023-03-30T00:13:47.024Z,100428.70
2023-03-30T00:16:14.971Z,100429.42
2023-03-30T00:18:45.042Z,100431.17
2023-03-30T00:21:20.780Z,100426.52
2023-03-30T00:23:52.383Z,100422.34
2023-03-30T00:26:20.613Z,100421.66
2023-03-30T00:28:48.495Z,100423.06
2023-03-30T00:31:17.185Z,100424.12
2023-03-30T00:33:47.541Z,100423.95
2023-03-30T00:36:17.817Z,100423.98
2023-03-30T00:38:49.361Z,100424.38
2023-03-30T00:41:17.931Z,100423.87
2023-03-30T00:44:07.588Z,100426.85
2023-03-30T00:46:36.505Z,100426.73
2023-03-30T00:49:06.657Z,100430.38
2023-03-30T00:51:37.366Z,100433.42
2023-03-30T00:54:08.629Z,100432.22
2023-03-30T00:56:38.021Z,100430.52
2023-03-30T00:59:05.932Z,100437.55
2023-03-30T01:01:39.534Z,100440.58
2023-03-30T01:04:10.105Z,100438.52
2023-03-30T01:06:40.436Z,100443.80
2023-03-30T01:09:09.013Z,100443.48
2023-03-30T01:11:40.462Z,100445.77
2023-03-30T01:14:10.122Z,100443.91
2023-03-30T01:16:48.736Z,100448.32
2023-03-30T01:19:44.654Z,100449.45
2023-03-30T01:22:18.594Z,100456.83
2023-03-30T01:24:53.676Z,100453.45
2023-03-30T01:27:30.673Z,100461.19
2023-03-30T01:30:30.579Z,100460.56
2023-03-30T01:33:23.485Z,100466.05
2023-03-30T01:36:03.562Z,100463.52
2023-03-30T01:41:11.474Z,100465.63
2023-03-30T01:43:57.487Z,100467.00
2023-03-30T01:46:40.276Z,100470.71
2023-03-30T01:49:16.289Z,100472.50
2023-03-30T01:52:03.859Z,100471.50
2023-03-30T01:54:38.982Z,100476.02
2023-03-30T01:57:15.514Z,100480.58
2023-03-30T01:59:47.639Z,100483.38
2023-03-30T02:02:16.948Z,100487.42
2023-03-30T02:04:45.771Z,100490.29
2023-03-30T02:07:16.289Z,100492.44
2023-03-30T02:09:45.823Z,100494.92
2023-03-30T02:12:14.005Z,100499.17
2023-03-30T02:14:42.668Z,100500.42
2023-03-30T02:17:15.226Z,100502.73
2023-03-30T02:19:47.517Z,100501.21
2023-03-30T02:22:17.712Z,100501.63
2023-03-30T02:24:46.694Z,100501.13
2023-03-30T02:27:14.516Z,100502.23
2023-03-30T02:29:44.605Z,100505.88
2023-03-30T02:32:19.589Z,100509.79
2023-03-30T02:35:22.525Z,100507.44
2023-03-30T02:38:26.573Z,100513.73
2023-03-30T02:41:15.799Z,100518.52
2023-03-30T02:43:51.263Z,100518.04
2023-03-30T02:46:38.514Z,100519.31
2023-03-30T02:49:17.246Z,100517.98
2023-03-30T02:51:57.204Z,100521.01
2023-03-30T02:54:51.000Z,100523.82
2023-03-30T02:57:49.279Z,100522.28
2023-03-30T03:00:44.459Z,100524.75
2023-03-30T03:03:19.972Z,100526.41
2023-03-30T03:05:49.035Z,100529.08
2023-03-30T03:08:18.983Z,100530.73
2023-03-30T03:10:47.702Z,100533.77
2023-03-30T03:13:20.882Z,100534.73
2023-03-30T03:15:49.845Z,100538.31
2023-03-30T03:18:18.818Z,100544.45
2023-03-30T03:20:47.028Z,100547.08
2023-03-30T03:23:16.625Z,100548.52
2023-03-30T03:25:51.690Z,100552.92
2023-03-30T03:28:22.411Z,100553.70
2023-03-30T03:30:54.342Z,100549.61
2023-03-30T03:33:24.864Z,100548.27
2023-03-30T03:36:00.547Z,100553.70
2023-03-30T03:38:29.470Z,100553.06
2023-03-30T03:40:58.531Z,100554.83
2023-03-30T03:43:26.903Z,100552.25
2023-03-30T03:45:55.091Z,100556.66
2023-03-30T03:48:24.414Z,100559.46
2023-03-30T03:50:53.937Z,100561.06
2023-03-30T03:53:22.944Z,100559.86
2023-03-30T03:55:52.922Z,100558.12
2023-03-30T03:58:23.788Z,100557.65
2023-03-30T04:00:57.463Z,100560.88
2023-03-30T04:03:32.398Z,100561.05
2023-03-30T04:06:01.195Z,100564.05
2023-03-30T04:08:30.659Z,100568.16
2023-03-30T04:11:10.039Z,100568.92
2023-03-30T04:13:48.940Z,100571.58
2023-03-30T04:16:44.252Z,100567.90
2023-03-30T04:19:33.532Z,100571.67
2023-03-30T04:22:24.383Z,100573.14
2023-03-30T04:25:16.060Z,100565.27
2023-03-30T04:28:06.658Z,100571.49
2023-03-30T04:30:59.065Z,100572.99
2023-03-30T04:34:02.676Z,100570.27
2023-03-30T04:36:48.992Z,100569.23
2023-03-30T04:39:36.282Z,100568.73
2023-03-30T04:42:34.481Z,100573.39
2023-03-30T04:45:23.744Z,100573.44
2023-03-30T04:48:16.534Z,100575.88
2023-03-30T04:50:56.398Z,100572.14
2023-03-30T04:53:43.057Z,100572.70
2023-03-30T04:56:26.407Z,100576.89
2023-03-30T04:59:13.314Z,100576.71
2023-03-30T05:02:01.092Z,100579.94
2023-03-30T05:04:42.294Z,100583.91
2023-03-30T05:07:31.557Z,100581.49
2023-03-30T05:10:22.966Z,100581.79
2023-03-30T05:12:57.590Z,100586.64
2023-03-30T05:15:39.908Z,100588.91
2023-03-30T05:18:26.165Z,100587.09
2023-03-30T05:21:09.165Z,100585.24
2023-03-30T05:23:55.929Z,100584.02
2023-03-30T05:27:02.955Z,100587.47
2023-03-30T05:29:51.639Z,100592.05
2023-03-30T05:32:47.384Z,100582.77
2023-03-30T05:35:27.135Z,100578.45
2023-03-30T05:38:19.073Z,100580.61
2023-03-30T05:41:11.223Z,100578.15
2023-03-30T05:43:59.505Z,100575.59
2023-03-30T05:46:58.652Z,100577.34
2023-03-30T05:49:41.401Z,100584.57
2023-03-30T05:52:18.815Z,100583.98
2023-03-30T05:55:02.872Z,100585.41
2023-03-30T05:57:50.450Z,100583.14
2023-03-30T06:00:42.545Z,100577.95
2023-03-30T06:03:16.469Z,100577.47
2023-03-30T06:05:46.702Z,100581.98
2023-03-30T06:08:15.295Z,100584.13
2023-03-30T06:10:52.198Z,100580.62
2023-03-30T06:13:20.173Z,100583.55
2023-03-30T06:15:52.172Z,100583.83
2023-03-30T06:18:22.706Z,100582.52
2023-03-30T06:20:57.506Z,100584.52
2023-03-30T06:23:26.482Z,100585.80
2023-03-30T06:25:56.210Z,100584.48
2023-03-30T06:28:29.093Z,100588.62
2023-03-30T06:30:56.999Z,100580.23
2023-03-30T06:33:26.421Z,100584.25
2023-03-30T06:35:58.685Z,100581.34
2023-03-30T06:38:27.640Z,100578.08
2023-03-30T06:40:57.097Z,100576.02
2023-03-30T06:43:26.340Z,100574.22
2023-03-30T06:46:16.038Z,100575.29
2023-03-30T06:48:48.847Z,100578.52
2023-03-30T06:51:37.241Z,100576.95
2023-03-30T06:54:06.299Z,100568.55
2023-03-30T06:56:34.498Z,100563.52
2023-03-30T06:59:10.945Z,100566.01
2023-03-30T07:02:00.037Z,100567.06
2023-03-30T07:04:53.078Z,100568.78
2023-03-30T07:07:26.568Z,100573.23
2023-03-30T07:09:54.790Z,100574.64
2023-03-30T07:12:25.093Z,100571.88
2023-03-30T07:14:54.485Z,100567.25
2023-03-30T07:17:26.400Z,100564.97
2023-03-30T07:19:59.016Z,100561.09
2023-03-30T07:22:27.898Z,100557.02
2023-03-30T07:24:55.861Z,100556.55
2023-03-30T07:27:27.287Z,100556.11
2023-03-30T07:30:00.528Z,100554.80
2023-03-30T07:32:34.815Z,100551.83
2023-03-30T07:35:04.397Z,100546.41
2023-03-30T07:37:32.660Z,100548.34
2023-03-30T07:40:01.323Z,100550.70
2023-03-30T07:42:31.591Z,100554.45
2023-03-30T07:44:59.897Z,100552.63
2023-03-30T07:47:29.008Z,100553.53
2023-03-30T07:49:57.217Z,100546.61
2023-03-30T07:52:26.405Z,100556.41
2023-03-30T07:54:58.764Z,100547.08
2023-03-30T07:57:34.312Z,100542.54
2023-03-30T08:00:05.621Z,100543.42
2023-03-30T08:03:05.335Z,100537.92
2023-03-30T08:05:38.967Z,100536.06
2023-03-30T08:08:15.981Z,100538.73
2023-03-30T08:10:44.905Z,100535.66
2023-03-30T08:13:15.539Z,100532.65
2023-03-30T08:15:45.313Z,100529.36
2023-03-30T08:18:14.249Z,100526.21
2023-03-30T08:20:45.595Z,100526.36
2023-03-30T08:23:14.176Z,100524.68
2023-03-30T08:25:42.916Z,100525.88
2023-03-30T08:28:11.777Z,100525.34
2023-03-30T08:30:40.101Z,100516.63
2023-03-30T08:33:09.298Z,100516.74
2023-03-30T08:35:37.583Z,100510.25
2023-03-30T08:38:05.433Z,100513.23
2023-03-30T08:40:33.230Z,100503.38
2023-03-30T08:43:09.823Z,100500.07
2023-03-30T08:45:42.623Z,100495.13
2023-03-30T08:48:22.134Z,100492.08
2023-03-30T08:51:14.766Z,100491.44
2023-03-30T08:53:42.867Z,100493.00
2023-03-30T08:56:19.089Z,100490.37
2023-03-30T08:58:56.490Z,100488.50
2023-03-30T09:01:42.344Z,100493.55
2023-03-30T09:04:27.428Z,100496.95
2023-03-30T09:06:58.315Z,100492.41
2023-03-30T09:09:28.875Z,100490.46
2023-03-30T09:12:05.194Z,100484.46
2023-03-30T09:14:36.674Z,100486.94
2023-03-30T09:17:14.568Z,100481.05
2023-03-30T09:19:49.355Z,100479.11
2023-03-30T09:22:18.468Z,100475.05
2023-03-30T09:24:46.775Z,100482.11
2023-03-30T09:27:22.639Z,100478.63
2023-03-30T09:29:51.604Z,100470.52
2023-03-30T09:32:36.016Z,100473.89
2023-03-30T09:35:14.933Z,100465.05
2023-03-30T09:37:42.837Z,100461.73
2023-03-30T09:40:23.376Z,100459.91
2023-03-30T09:42:55.562Z,100457.33
2023-03-30T09:45:31.995Z,100458.95
2023-03-30T09:48:06.555Z,100462.31
2023-03-30T09:50:44.152Z,100455.86
2023-03-30T09:53:25.805Z,100450.40
2023-03-30T09:56:11.270Z,100451.52
2023-03-30T09:58:42.422Z,100443.94
2023-03-30T10:01:12.814Z,100440.38
2023-03-30T10:04:05.799Z,100435.36
2023-03-30T10:06:39.541Z,100438.48
2023-03-30T10:09:11.455Z,100431.62
2023-03-30T10:11:44.918Z,100424.50
2023-03-30T10:14:23.754Z,100423.33
2023-03-30T10:16:56.742Z,100423.52
2023-03-30T10:19:25.709Z,100421.61
2023-03-30T10:21:58.909Z,100421.95
2023-03-30T10:24:33.232Z,100417.41
2023-03-30T10:27:09.735Z,100415.13
2023-03-30T10:29:37.805Z,100413.19
2023-03-30T10:32:19.688Z,100408.55
2023-03-30T10:34:52.472Z,100407.88
2023-03-30T10:37:34.563Z,100405.51
2023-03-30T10:40:08.878Z,100405.39
2023-03-30T10:42:37.103Z,100405.02
2023-03-30T10:45:06.404Z,100406.59
2023-03-30T10:48:03.117Z,100406.06
2023-03-30T10:50:52.236Z,100404.40
2023-03-30T10:53:30.954Z,100401.91
2023-03-30T10:56:17.286Z,100399.95
2023-03-30T10:59:16.338Z,100399.88
2023-03-30T11:02:08.820Z,100392.45
2023-03-30T11:04:36.747Z,100389.13
2023-03-30T11:07:05.754Z,100389.99
2023-03-30T11:09:36.770Z,100385.79
2023-03-30T11:12:11.304Z,100383.21
2023-03-30T11:14:47.758Z,100385.05
2023-03-30T11:17:35.556Z,100375.13
2023-03-30T11:20:17.955Z,100371.96
2023-03-30T11:22:49.235Z,100374.78
2023-03-30T11:25:39.507Z,100373.13
2023-03-30T11:28:44.974Z,100362.54
2023-03-30T11:31:40.340Z,100357.11
2023-03-30T11:34:28.486Z,100362.43
2023-03-30T11:37:13.580Z,100362.58
2023-03-30T11:39:48.026Z,100363.19
2023-03-30T11:42:23.236Z,100360.71
2023-03-30T11:44:51.837Z,100354.89
2023-03-30T11:47:37.044Z,100358.05
2023-03-30T11:50:50.794Z,100348.90
2023-03-30T11:53:28.609Z,100345.34
2023-03-30T11:56:06.770Z,100339.86
2023-03-30T11:58:38.229Z,100340.23
2023-03-30T12:02:04.552Z,100332.73
2023-03-30T12:04:40.294Z,100338.02
2023-03-30T12:07:35.420Z,100339.64
2023-03-30T12:10:08.297Z,100340.00
2023-03-30T12:12:45.738Z,100331.54
2023-03-30T12:15:26.493Z,100335.69
2023-03-30T12:18:02.830Z,100336.09
2023-03-30T12:20:43.183Z,100338.16
2023-03-30T12:23:36.009Z,100337.92
2023-03-30T12:26:25.913Z,100339.81
2023-03-30T12:29:26.240Z,100338.55
2023-03-30T12:31:56.040Z,100338.48
2023-03-30T12:34:26.167Z,100333.13
2023-03-30T12:37:10.127Z,100330.41
2023-03-30T12:39:51.007Z,100324.60
2023-03-30T12:42:35.278Z,100328.07
2023-03-30T12:45:14.961Z,100318.73
2023-03-30T12:47:52.589Z,100322.33
2023-03-30T12:51:00.290Z,100323.15
2023-03-30T12:53:47.274Z,100315.52
2023-03-30T12:56:35.576Z,100307.52
2023-03-30T12:59:26.376Z,100306.33
2023-03-30T13:02:01.874Z,100307.57
2023-03-30T13:04:34.468Z,100306.38
2023-03-30T13:07:07.081Z,100301.69
2023-03-30T13:10:01.863Z,100301.17
2023-03-30T13:12:36.066Z,100297.61
2023-03-30T13:15:31.634Z,100304.89
2023-03-30T13:18:05.037Z,100300.41
2023-03-30T13:20:47.117Z,100293.98
2023-03-30T13:23:19.817Z,100288.09
2023-03-30T13:26:07.869Z,100289.42
2023-03-30T13:28:57.489Z,100291.77
2023-03-30T13:31:44.179Z,100282.38
2023-03-30T13:34:22.146Z,100282.11
2023-03-30T13:37:14.554Z,100279.48
2023-03-30T13:40:24.554Z,100272.02
2023-03-30T13:43:10.157Z,100267.73
2023-03-30T13:46:13.154Z,100264.28
2023-03-30T13:48:49.983Z,100264.03
2023-03-30T13:51:27.563Z,100257.55
2023-03-30T13:54:01.697Z,100257.95
2023-03-30T13:59:32.222Z,100259.98
2023-03-30T14:02:01.074Z,100258.25
2023-03-30T14:04:34.590Z,100253.90
2023-03-30T14:07:14.235Z,100250.45
2023-03-30T14:09:42.611Z,100254.27
2023-03-30T14:12:18.515Z,100249.64
2023-03-30T14:14:48.386Z,100249.08
2023-03-30T14:17:21.852Z,100242.95
2023-03-30T14:20:19.855Z,100245.20
2023-03-30T14:22:47.888Z,100241.14
2023-03-30T14:25:26.336Z,100245.48
2023-03-30T14:28:02.947Z,100237.66
2023-03-30T14:30:31.356Z,100236.90
2023-03-30T14:33:11.507Z,100236.88
2023-03-30T14:35:50.953Z,100237.61
2023-03-30T14:38:24.090Z,100233.34
2023-03-30T14:40:53.267Z,100232.48
2023-03-30T14:43:24.628Z,100230.99
2023-03-30T14:45:53.739Z,100234.89
2023-03-30T14:48:31.737Z,100230.19
2023-03-30T14:51:19.906Z,100221.77
2023-03-30T14:53:49.993Z,100219.63
2023-03-30T14:56:20.661Z,100213.82
2023-03-30T14:58:49.413Z,100214.11
2023-03-30T15:01:31.050Z,100218.50
2023-03-30T15:04:07.618Z,100213.48
2023-03-30T15:06:36.652Z,100212.66
2023-03-30T15:09:15.094Z,100211.36
2023-03-30T15:11:43.521Z,100208.02
2023-03-30T15:14:15.218Z,100204.19
2023-03-30T15:16:43.125Z,100201.59
2023-03-30T15:19:28.081Z,100202.27
2023-03-30T15:22:01.085Z,100200.44
2023-03-30T15:24:33.098Z,100197.65
2023-03-30T15:27:03.305Z,100198.73
2023-03-30T15:29:31.614Z,100195.33
2023-03-30T15:32:20.186Z,100188.99
2023-03-30T15:35:13.701Z,100186.36
2023-03-30T15:37:56.108Z,100185.88
2023-03-30T15:40:40.936Z,100185.73
2023-03-30T15:43:20.032Z,100187.49
2023-03-30T15:46:08.871Z,100187.30
2023-03-30T15:48:45.630Z,100185.39
2023-03-30T15:51:24.705Z,100185.16
2023-03-30T15:53:56.781Z,100183.70
2023-03-30T15:57:04.059Z,100183.21
2023-03-30T15:59:40.617Z,100185.92
2023-03-30T16:02:22.766Z,100189.15
2023-03-30T16:04:51.666Z,100180.86
2023-03-30T16:07:21.195Z,100184.92
2023-03-30T16:09:49.052Z,100184.29
2023-03-30T16:12:20.648Z,100187.63
2023-03-30T16:14:48.588Z,100190.67
2023-03-30T16:17:16.752Z,100194.14
2023-03-30T16:19:45.763Z,100194.77
2023-03-30T16:22:14.331Z,100195.61
2023-03-30T16:24:43.650Z,100193.38
2023-03-30T16:27:12.184Z,100198.51
2023-03-30T16:29:45.967Z,100200.23
2023-03-30T16:32:13.877Z,100199.13
2023-03-30T16:34:43.092Z,100203.15
2023-03-30T16:37:13.717Z,100206.29
2023-03-30T16:39:42.644Z,100206.87
2023-03-30T16:42:11.138Z,100205.48
2023-03-30T16:44:39.033Z,100209.30
2023-03-30T16:47:07.399Z,100211.00
2023-03-30T16:49:35.544Z,100213.18
2023-03-30T16:52:03.549Z,100213.02
2023-03-30T16:54:32.961Z,100217.61
2023-03-30T16:57:02.548Z,100221.50
2023-03-30T16:59:34.447Z,100219.03
2023-03-30T17:02:03.520Z,100219.58
2023-03-30T17:04:31.695Z,100220.88
2023-03-30T17:07:01.868Z,100218.50
2023-03-30T17:09:30.198Z,100217.72
2023-03-30T17:11:58.181Z,100220.86
2023-03-30T17:14:26.133Z,100222.91
2023-03-30T17:16:55.188Z,100223.55
2023-03-30T17:19:25.664Z,100222.14
2023-03-30T17:21:53.550Z,100222.66
2023-03-30T17:24:21.710Z,100220.96
2023-03-30T17:26:49.667Z,100222.89
2023-03-30T17:29:17.830Z,100224.51
2023-03-30T17:31:52.221Z,100223.68
2023-03-30T17:34:20.431Z,100218.69
2023-03-30T17:36:48.392Z,100219.95
2023-03-30T17:39:16.832Z,100219.30
2023-03-30T17:41:44.867Z,100216.07
2023-03-30T17:44:17.838Z,100213.69
2023-03-30T17:46:46.295Z,100210.59
2023-03-30T17:49:18.618Z,100212.34
2023-03-30T17:51:47.165Z,100214.79
2023-03-30T17:54:15.640Z,100218.77
2023-03-30T17:56:43.672Z,100214.48
2023-03-30T17:59:11.739Z,100216.98
2023-03-30T18:01:40.191Z,100219.29
2023-03-30T18:04:08.430Z,100221.85
2023-03-30T18:06:36.474Z,100222.49
2023-03-30T18:09:06.209Z,100227.32
2023-03-30T18:11:35.165Z,100224.83
2023-03-30T18:14:03.208Z,100222.45
2023-03-30T18:16:31.265Z,100219.87
2023-03-30T18:18:59.495Z,100215.11
2023-03-30T18:21:27.732Z,100216.84
2023-03-30T18:23:57.022Z,100218.71
2023-03-30T18:26:24.862Z,100214.51
2023-03-30T18:28:52.858Z,100210.09
2023-03-30T18:31:22.360Z,100209.58
2023-03-30T18:33:53.062Z,100211.37
2023-03-30T18:36:21.615Z,100212.74
2023-03-30T18:38:50.406Z,100207.98
2023-03-30T18:41:18.264Z,100210.42
2023-03-30T18:43:47.312Z,100206.20
2023-03-30T18:46:15.213Z,100208.83
2023-03-30T18:48:44.424Z,100205.45
2023-03-30T18:51:12.719Z,100195.58
2023-03-30T18:53:42.505Z,100192.88
2023-03-30T18:56:11.630Z,100187.67
2023-03-30T18:58:42.025Z,100185.84
2023-03-30T19:01:16.125Z,100185.30
2023-03-30T19:03:45.344Z,100181.83
2023-03-30T19:06:16.572Z,100183.16
2023-03-30T19:08:44.725Z,100179.60
2023-03-30T19:11:14.994Z,100177.90
2023-03-30T19:13:43.032Z,100174.28
2023-03-30T19:16:12.502Z,100168.20
2023-03-30T19:18:41.109Z,100164.03
2023-03-30T19:21:13.484Z,100167.01
2023-03-30T19:23:41.557Z,100167.77
2023-03-30T19:26:09.628Z,100168.17
2023-03-30T19:28:40.107Z,100168.29
2023-03-30T19:31:12.174Z,100164.70
2023-03-30T19:33:40.548Z,100158.25
2023-03-30T19:36:11.060Z,100159.58
2023-03-30T19:38:39.102Z,100156.01
2023-03-30T19:41:10.238Z,100152.23
2023-03-30T19:43:38.423Z,100149.84
2023-03-30T19:46:08.991Z,100141.52
2023-03-30T19:48:38.551Z,100139.64
2023-03-30T19:51:06.976Z,100135.48
2023-03-30T19:53:37.914Z,100132.74
2023-03-30T19:56:10.436Z,100129.05
2023-03-30T19:58:38.924Z,100121.45
2023-03-30T20:01:08.291Z,100116.56
2023-03-30T20:03:37.407Z,100113.39
2023-03-30T20:06:11.805Z,100111.48
2023-03-30T20:08:40.283Z,100107.16
2023-03-30T20:11:08.878Z,100101.61
2023-03-30T20:13:36.890Z,100103.80
2023-03-30T20:16:06.063Z,100100.52
2023-03-30T20:18:35.690Z,100098.23
2023-03-30T20:21:04.638Z,100095.48
2023-03-30T20:23:33.180Z,100088.91
2023-03-30T20:26:04.252Z,100088.02
2023-03-30T20:28:34.007Z,100084.72
2023-03-30T20:31:02.066Z,100079.92
2023-03-30T20:33:32.819Z,100078.77
2023-03-30T20:36:01.310Z,100077.58
2023-03-30T20:38:29.444Z,100074.84
2023-03-30T20:40:58.564Z,100073.27
2023-03-30T20:43:26.807Z,100069.98
2023-03-30T20:46:05.762Z,100068.52
2023-03-30T20:48:37.632Z,100070.23
2023-03-30T20:51:10.974Z,100068.75
2023-03-30T20:53:39.326Z,100065.11
2023-03-30T20:56:10.336Z,100065.05
2023-03-30T20:58:39.196Z,100059.88
2023-03-30T21:01:18.855Z,100054.96
2023-03-30T21:03:50.213Z,100054.20
2023-03-30T21:06:19.816Z,100051.18
2023-03-30T21:08:48.780Z,100049.63
2023-03-30T21:11:17.120Z,100048.20
2023-03-30T21:13:56.684Z,100041.10
2023-03-30T21:16:24.779Z,100031.92
2023-03-30T21:18:53.516Z,100030.66
2023-03-30T21:21:22.970Z,100022.72
2023-03-30T21:23:50.869Z,100011.02
2023-03-30T21:26:19.252Z,100006.85
2023-03-30T21:28:47.252Z,100000.11
2023-03-30T21:31:17.322Z,99997.45
2023-03-30T21:33:46.379Z,99996.36
2023-03-30T21:36:14.407Z,99998.34
2023-03-30T21:38:42.468Z,99997.64
2023-03-30T21:41:14.039Z,99993.91
2023-03-30T21:43:44.408Z,99990.06
2023-03-30T21:46:20.628Z,99986.42
2023-03-30T21:48:53.698Z,99989.04
2023-03-30T21:51:27.399Z,99984.73
2023-03-30T21:53:56.178Z,99983.61
2023-03-30T21:56:26.020Z,99983.02
2023-03-30T21:58:53.979Z,99982.17
2023-03-30T22:01:25.085Z,99977.75
2023-03-30T22:03:54.313Z,99973.89
2023-03-30T22:06:22.561Z,99973.09
2023-03-30T22:11:20.716Z,99967.71
2023-03-30T22:13:49.101Z,99966.84
2023-03-30T22:16:25.852Z,99956.20
2023-03-30T22:18:56.957Z,99952.90
2023-03-30T22:21:27.288Z,99946.54
2023-03-30T22:23:55.120Z,99944.96
2023-03-30T22:26:22.981Z,99938.54
2023-03-30T22:28:51.384Z,99932.36
2023-03-30T22:31:23.328Z,99928.31
2023-03-30T22:33:52.972Z,99926.01
2023-03-30T22:36:23.278Z,99927.06
2023-03-30T22:38:51.985Z,99922.13
2023-03-30T22:41:24.001Z,99917.98
2023-03-30T22:43:53.196Z,99913.52
2023-03-30T22:46:21.678Z,99912.12
2023-03-30T22:48:51.753Z,99917.50
2023-03-30T22:51:26.522Z,99917.30
2023-03-30T22:53:58.021Z,99911.66
2023-03-30T22:56:31.850Z,99912.45
2023-03-30T22:59:01.385Z,99914.18
2023-03-30T23:01:32.060Z,99915.30
2023-03-30T23:04:01.876Z,99912.23
2023-03-30T23:06:31.915Z,99905.55
2023-03-30T23:09:04.308Z,99907.06
2023-03-30T23:11:34.429Z,99903.95
2023-03-30T23:14:05.454Z,99901.40
2023-03-30T23:16:34.338Z,99897.36
2023-03-30T23:19:03.318Z,99897.66
2023-03-30T23:21:34.419Z,99893.77
2023-03-30T23:24:07.668Z,99892.02
2023-03-30T23:26:36.812Z,99887.17
2023-03-30T23:29:04.975Z,99884.17
2023-03-30T23:31:34.830Z,99885.36
2023-03-30T23:34:02.864Z,99883.64
2023-03-30T23:36:31.381Z,99879.42
2023-03-30T23:38:59.247Z,99872.87
2023-03-30T23:41:29.099Z,99871.55
2023-03-30T23:43:58.288Z,99869.83
2023-03-30T23:46:26.764Z,99865.54
2023-03-30T23:48:55.014Z,99862.98
2023-03-30T23:51:22.929Z,99858.97
2023-03-30T23:53:54.570Z,99855.19
2023-03-30T23:56:27.849Z,99852.65
2023-03-30T23:58:56.896Z,99850.27
